Time,TemperatureF,DewpointF,PressureIn,WindDirection,WindDirectionDegrees,WindSpeedMPH,WindSpeedGustMPH,Humidity,HourlyPrecipIn,Conditions,Clouds,dailyrainin,SoftwareType,DateUTC
2013-01-14 00:20:00,22.0,-99.9,-100.00,NNE,14,1.0,3.0,-999,-99.99,,,-99.99,,2013-01-14 08:20:00,
2013-01-14 01:03:00,22.0,-99.9,-100.00,NNE,14,1.0,3.0,-999,-99.99,,,-99.99,,2013-01-14 09:03:00,
2013-01-14 01:12:00,22.0,-99.9,-100.00,NNE,14,1.0,3.0,-999,-99.99,,,-99.99,,2013-01-14 09:12:00,
2013-01-14 01:34:00,25.0,-99.9,-100.00,NNW,346,3.0,6.0,-999,-99.99,,,-99.99,,2013-01-14 09:34:00,
2013-01-14 01:43:00,25.0,-99.9,-100.00,NNW,346,3.0,6.0,-999,-99.99,,,-99.99,,2013-01-14 09:43:00,
2013-01-14 01:53:00,21.0,-99.9,-100.00,NNW,337,2.0,2.0,-999,-99.99,,,-99.99,,2013-01-14 09:53:00,
2013-01-14 02:00:00,20.0,-99.9,-100.00,SSE,162,4.0,5.0,-999,-99.99,,,-99.99,,2013-01-14 10:00:00,
2013-01-14 02:03:00,21.0,-99.9,-100.00,NNW,337,2.0,2.0,-999,-99.99,,,-99.99,,2013-01-14 10:03:00,
2013-01-14 02:53:00,20.0,-99.9,-100.00,SSE,162,4.0,5.0,-999,-99.99,,,-99.99,,2013-01-14 10:53:00,
2013-01-14 03:30:00,20.0,-99.9,-100.00,West,266,2.0,5.0,-999,-99.99,,,-99.99,,2013-01-14 11:30:00,
2013-01-14 04:23:00,20.0,-99.9,-100.00,West,266,2.0,5.0,-999,-99.99,,,-99.99,,2013-01-14 12:23:00,
2013-01-14 05:00:00,18.0,-99.9,-100.00,WNW,290,5.0,6.0,-999,-99.99,,,-99.99,,2013-01-14 13:00:00,
2013-01-14 05:53:00,18.0,-99.9,-100.00,WNW,290,5.0,6.0,-999,-99.99,,,-99.99,,2013-01-14 13:53:00,
2013-01-14 06:30:00,18.0,-99.9,-100.00,WNW,282,5.0,6.0,-999,-99.99,,,-99.99,,2013-01-14 14:30:00,
2013-01-14 07:24:00,18.0,-99.9,-100.00,WNW,282,5.0,6.0,-999,-99.99,,,-99.99,,2013-01-14 15:24:00,
2013-01-14 10:20:00,32.0,-99.9,-100.00,East,90,3.0,9.0,-999,-99.99,,,-99.99,,2013-01-14 18:20:00,
2013-01-14 10:23:00,30.0,-99.9,-100.00,ENE,74,5.0,6.0,-999,-99.99,,,-99.99,,2013-01-14 18:23:00,
2013-01-14 10:33:00,30.0,-99.9,-100.00,ENE,74,5.0,6.0,-999,-99.99,,,-99.99,,2013-01-14 18:33:00,
2013-01-14 11:03:00,32.0,-99.9,-100.00,East,90,3.0,9.0,-999,-99.99,,,-99.99,,2013-01-14 19:03:00,
2013-01-14 11:13:00,32.0,-99.9,-100.00,East,90,3.0,9.0,-999,-99.99,,,-99.99,,2013-01-14 19:13:00,
2013-01-14 13:03:00,36.0,-99.9,-100.00,SE,126,2.0,6.0,-999,-99.99,,,-99.99,,2013-01-14 21:03:00,
2013-01-14 13:13:00,36.0,-99.9,-100.00,SE,126,2.0,6.0,-999,-99.99,,,-99.99,,2013-01-14 21:13:00,
2013-01-14 13:23:00,36.0,-99.9,-100.00,SE,126,2.0,6.0,-999,-99.99,,,-99.99,,2013-01-14 21:23:00,
2013-01-14 15:00:00,38.0,-99.9,-100.00,East,81,2.0,7.0,-999,-99.99,,,-99.99,,2013-01-14 23:00:00,
2013-01-14 15:53:00,38.0,-99.9,-100.00,East,81,2.0,7.0,-999,-99.99,,,-99.99,,2013-01-14 23:53:00,
2013-01-14 16:20:00,37.0,-99.9,-100.00,East,97,1.0,4.0,-999,-99.99,,,-99.99,,2013-01-15 00:20:00,
2013-01-14 17:02:00,37.0,-99.9,-100.00,East,97,1.0,4.0,-999,-99.99,,,-99.99,,2013-01-15 01:02:00,
2013-01-14 17:12:00,37.0,-99.9,-100.00,East,97,1.0,4.0,-999,-99.99,,,-99.99,,2013-01-15 01:12:00,
2013-01-14 19:20:00,25.0,-99.9,-100.00,West,276,5.0,6.0,-999,-99.99,,,-99.99,,2013-01-15 03:20:00,
2013-01-14 20:03:00,25.0,-99.9,-100.00,West,276,5.0,6.0,-999,-99.99,,,-99.99,,2013-01-15 04:03:00,
2013-01-14 20:12:00,25.0,-99.9,-100.00,West,276,5.0,6.0,-999,-99.99,,,-99.99,,2013-01-15 04:12:00,
2013-01-14 21:00:00,25.0,-99.9,-100.00,NNW,332,4.0,4.0,-999,-99.99,,,-99.99,,2013-01-15 05:00:00,
2013-01-14 21:53:00,25.0,-99.9,-100.00,NNW,332,4.0,4.0,-999,-99.99,,,-99.99,,2013-01-15 05:53:00,
2013-01-14 22:00:00,26.0,-99.9,-100.00,West,278,5.0,7.0,-999,-99.99,,,-99.99,,2013-01-15 06:00:00,
2013-01-14 22:53:00,26.0,-99.9,-100.00,West,278,5.0,7.0,-999,-99.99,,,-99.99,,2013-01-15 06:53:00,
2013-01-14 23:33:00,27.0,-99.9,-100.00,West,263,6.0,7.0,-999,-99.99,,,-99.99,,2013-01-15 07:33:00,
2013-01-14 23:43:00,27.0,-99.9,-100.00,West,263,6.0,7.0,-999,-99.99,,,-99.99,,2013-01-15 07:43:00,
2013-01-14 23:53:00,27.0,-99.9,-100.00,West,263,6.0,7.0,-999,-99.99,,,-99.99,,2013-01-15 07:53:00,